Time;durP1;ratioP1;P1;durP2;ratioP2;P2;SDS_P1;SDS_P2;PMS_P1;PMS_P2;Temp;Humidity;BMP_temperature;BMP_pressure;BME280_temperature;BME280_humidity;BME280_pressure;Samples;Min_cycle;Max_cycle;Signal;HPM_P1;HPM_P2
2021/06/02 00:00:13;;;;;;;3.73;3.07;;;;;;;11.86;59.12;99595.31;4992386;28;20296;-80
2021/06/02 00:02:45;;;;;;;6.60;3.70;;;;;;;11.80;59.01;99578.25;4990733;28;20240;-81
2021/06/02 00:05:13;;;;;;;3.40;3.10;;;;;;;11.70;59.32;99577.13;4991479;28;20292;-81
2021/06/02 00:07:46;;;;;;;4.43;3.20;;;;;;;11.78;59.13;99577.66;4990508;28;20231;-80
2021/06/02 00:10:19;;;;;;;3.70;3.37;;;;;;;11.75;59.31;99572.75;4991635;28;20255;-80
2021/06/02 00:12:47;;;;;;;4.43;3.67;;;;;;;11.74;59.41;99579.16;4993223;28;20231;-80
2021/06/02 00:15:16;;;;;;;4.57;2.93;;;;;;;11.56;59.43;99559.59;4991176;28;20218;-80
2021/06/02 00:17:46;;;;;;;3.57;3.27;;;;;;;11.64;60.02;99583.41;4992991;28;20212;-81
2021/06/02 00:20:13;;;;;;;6.33;3.40;;;;;;;11.54;60.06;99565.16;4991598;28;20235;-80
2021/06/02 00:22:40;;;;;;;3.63;3.20;;;;;;;11.44;60.17;99562.19;4974913;28;20219;-80
2021/06/02 00:25:11;;;;;;;4.83;3.43;;;;;;;11.56;60.16;99581.06;4974252;28;20239;-80
2021/06/02 00:27:41;;;;;;;3.60;3.30;;;;;;;11.44;60.31;99570.25;4992168;28;20292;-82
2021/06/02 00:30:13;;;;;;;4.47;3.33;;;;;;;11.48;60.33;99583.00;5007458;28;20223;-80
2021/06/02 00:32:42;;;;;;;6.10;3.33;;;;;;;11.47;60.56;99584.06;4990956;28;20295;-81
2021/06/02 00:35:17;;;;;;;4.97;3.20;;;;;;;11.42;60.57;99575.03;4992087;28;20237;-80
2021/06/02 00:37:48;;;;;;;4.83;3.63;;;;;;;11.39;60.90;99580.84;4991462;28;20295;-80
2021/06/02 00:40:58;;;;;;;5.93;3.50;;;;;;;11.32;61.18;99569.38;4988997;28;20232;-80
2021/06/02 00:43:24;;;;;;;5.70;3.67;;;;;;;11.29;61.07;99570.63;4950984;29;20233;-79
2021/06/02 00:45:51;;;;;;;5.30;3.47;;;;;;;11.27;61.02;99564.69;4978648;28;20237;-81
2021/06/02 00:48:18;;;;;;;4.03;3.47;;;;;;;11.28;61.00;99576.25;4990044;28;20712;-81
2021/06/02 00:50:49;;;;;;;5.43;3.50;;;;;;;11.18;61.31;99571.41;4990165;28;20279;-80
2021/06/02 00:53:18;;;;;;;3.80;3.50;;;;;;;11.25;61.34;99579.38;4990545;28;20255;-80
2021/06/02 00:55:46;;;;;;;3.83;3.40;;;;;;;11.22;61.10;99577.97;4990439;28;20228;-80
2021/06/02 00:58:20;;;;;;;3.77;3.23;;;;;;;11.15;61.59;99565.69;4992815;28;20180;-80
2021/06/02 01:00:50;;;;;;;4.60;3.47;;;;;;;11.14;61.46;99572.09;4991980;28;20236;-81
2021/06/02 01:03:22;;;;;;;5.17;3.63;;;;;;;11.10;61.78;99571.72;4991869;28;20248;-80
2021/06/02 01:05:51;;;;;;;4.87;3.47;;;;;;;11.01;62.15;99575.75;4991430;28;20231;-81
2021/06/02 01:08:21;;;;;;;4.17;3.53;;;;;;;10.95;62.71;99565.91;4990844;28;20212;-81
2021/06/02 01:10:51;;;;;;;3.93;3.53;;;;;;;10.97;62.99;99580.72;4990397;28;20238;-82
2021/06/02 01:13:20;;;;;;;6.13;3.60;;;;;;;10.86;63.80;99575.28;4991088;28;20232;-82
2021/06/02 01:15:50;;;;;;;4.20;3.80;;;;;;;10.82;63.92;99582.97;4988906;28;20252;-83
2021/06/02 01:18:18;;;;;;;4.70;4.00;;;;;;;10.67;64.88;99565.59;4988710;28;20224;-80
2021/06/02 01:20:46;;;;;;;4.20;3.80;;;;;;;10.69;65.09;99579.56;4988735;28;20232;-81
2021/06/02 01:23:18;;;;;;;4.00;3.60;;;;;;;10.66;64.95;99582.72;4975077;28;20215;-82
2021/06/02 01:25:45;;;;;;;4.83;3.57;;;;;;;10.46;65.38;99567.63;4989402;28;20235;-80
2021/06/02 01:28:12;;;;;;;4.57;3.90;;;;;;;10.32;66.35;99563.44;4989873;28;20236;-82
2021/06/02 01:30:41;;;;;;;5.13;4.03;;;;;;;10.32;66.66;99578.69;4989816;28;20227;-80
2021/06/02 01:33:17;;;;;;;6.07;3.93;;;;;;;10.24;67.25;99593.19;4989200;28;20224;-81
2021/06/02 01:36:04;;;;;;;5.70;3.60;;;;;;;10.18;66.57;99583.31;4988782;28;20235;-82
2021/06/02 01:38:30;;;;;;;4.20;3.80;;;;;;;10.13;66.68;99589.31;4987251;28;20271;-80
2021/06/02 01:41:18;;;;;;;5.93;3.97;;;;;;;10.09;66.56;99585.44;4988039;28;20228;-82
2021/06/02 01:44:27;;;;;;;4.13;3.70;;;;;;;10.03;66.78;99586.28;4989478;28;20323;-81
2021/06/02 01:47:15;;;;;;;5.30;3.87;;;;;;;9.94;67.42;99578.72;4987672;28;20259;-81
2021/06/02 01:50:28;;;;;;;4.70;3.57;;;;;;;9.94;67.88;99578.72;5005305;28;20228;-82
2021/06/02 01:53:19;;;;;;;4.40;4.00;;;;;;;9.89;68.14;99573.25;4984098;28;20670;-83
2021/06/02 01:55:59;;;;;;;4.93;3.83;;;;;;;9.79;68.68;99573.72;4987219;28;20232;-82
2021/06/02 01:58:45;;;;;;;6.30;4.10;;;;;;;9.75;69.35;99569.84;4987389;28;20520;-81
2021/06/02 02:01:31;;;;;;;4.60;3.77;;;;;;;9.66;69.28;99571.91;4986636;28;20294;-82
2021/06/02 02:04:37;;;;;;;5.47;3.90;;;;;;;9.61;69.03;99579.75;4967735;28;20237;-80
2021/06/02 02:07:43;;;;;;;5.33;3.80;;;;;;;9.56;69.66;99579.63;4967104;29;20228;-81
2021/06/02 02:10:37;;;;;;;4.13;3.70;;;;;;;9.46;69.10;99568.56;4931766;29;20236;-81
2021/06/02 02:13:17;;;;;;;4.00;3.60;;;;;;;9.49;69.65;99578.00;4965159;29;20248;-82
2021/06/02 02:16:11;;;;;;;4.33;3.77;;;;;;;9.43;70.21;99578.84;4967411;28;20233;-82
2021/06/02 02:18:56;;;;;;;5.60;3.80;;;;;;;9.41;70.46;99589.75;4967382;28;20245;-82
2021/06/02 02:21:41;;;;;;;5.33;3.57;;;;;;;9.33;69.96;99579.31;4965869;29;20229;-80
2021/06/02 02:24:11;;;;;;;4.57;3.83;;;;;;;9.31;70.32;99578.69;4981937;28;20233;-81
2021/06/02 02:26:57;;;;;;;4.63;3.60;;;;;;;9.29;70.67;99578.91;4967416;28;20240;-80
2021/06/02 02:29:57;;;;;;;5.03;4.10;;;;;;;9.31;70.92;99577.88;4966990;28;20236;-83
2021/06/02 02:32:48;;;;;;;3.97;3.67;;;;;;;9.28;70.62;99574.56;4966388;28;20228;-81
2021/06/02 02:35:18;;;;;;;4.30;3.90;;;;;;;9.26;69.98;99578.50;4966529;29;20236;-82
2021/06/02 02:37:58;;;;;;;4.60;4.03;;;;;;;9.24;70.42;99572.53;4966964;28;20230;-80
2021/06/02 02:40:48;;;;;;;6.60;3.90;;;;;;;9.22;69.78;99575.44;4965975;28;20236;-81
2021/06/02 02:43:59;;;;;;;6.23;4.00;;;;;;;9.27;69.31;99574.81;4982337;28;20192;-81
2021/06/02 02:46:38;;;;;;;5.00;4.50;;;;;;;9.29;69.77;99584.25;4930602;29;20225;-82
2021/06/02 02:49:20;;;;;;;4.50;4.10;;;;;;;9.26;69.80;99581.19;4964072;29;20242;-83
2021/06/02 02:52:30;;;;;;;4.20;3.70;;;;;;;9.29;69.88;99588.78;4981206;28;20241;-81
2021/06/02 02:55:19;;;;;;;4.00;3.50;;;;;;;9.29;70.10;99588.78;4939685;28;20232;-82
2021/06/02 02:58:01;;;;;;;4.10;3.70;;;;;;;9.22;69.73;99575.44;4966781;28;20233;-82
2021/06/02 03:00:51;;;;;;;5.53;4.03;;;;;;;9.25;70.01;99590.22;4981437;28;20376;-82
2021/06/02 03:03:29;;;;;;;4.53;3.90;;;;;;;9.17;69.99;99588.63;4963802;28;20287;-82
2021/06/02 03:06:31;;;;;;;4.80;3.60;;;;;;;9.21;69.55;99603.22;4966114;28;20645;-80
2021/06/02 03:09:10;;;;;;;4.53;3.73;;;;;;;9.20;70.19;99596.22;4981651;28;20542;-82
2021/06/02 03:11:41;;;;;;;4.10;3.70;;;;;;;9.21;70.37;99594.38;4972786;28;20259;-82
2021/06/02 03:14:13;;;;;;;4.20;3.77;;;;;;;9.22;69.78;99599.50;4988832;28;20258;-81
2021/06/02 03:16:43;;;;;;;5.17;4.10;;;;;;;9.19;69.64;99583.06;4973249;28;20228;-80
2021/06/02 03:19:16;;;;;;;5.23;3.73;;;;;;;9.25;69.48;99587.56;4988922;28;20640;-81
2021/06/02 03:21:45;;;;;;;4.33;3.93;;;;;;;9.28;69.69;99597.84;4988780;28;20590;-82
2021/06/02 03:24:20;;;;;;;5.90;4.33;;;;;;;9.28;69.87;99598.63;4989242;28;20235;-81
2021/06/02 03:26:58;;;;;;;4.43;4.03;;;;;;;9.25;69.77;99595.56;4972374;28;20239;-82
2021/06/02 03:29:36;;;;;;;4.50;4.10;;;;;;;9.29;69.77;99604.81;4988762;28;20228;-83
2021/06/02 03:32:17;;;;;;;4.60;4.20;;;;;;;9.38;69.71;99613.44;4971325;28;20235;-81
2021/06/02 03:35:06;;;;;;;4.30;3.90;;;;;;;9.39;69.86;99615.88;4965214;28;20224;-82
2021/06/02 03:37:45;;;;;;;4.63;4.23;;;;;;;9.31;70.36;99592.06;4980646;28;20232;-81
2021/06/02 03:40:49;;;;;;;5.13;4.23;;;;;;;9.45;70.28;99614.22;4971879;28;20602;-80
2021/06/02 03:43:32;;;;;;;5.73;4.07;;;;;;;9.42;70.23;99606.63;4972654;28;20311;-82
2021/06/02 03:46:36;;;;;;;5.97;4.50;;;;;;;9.52;70.30;99615.00;4987439;28;20228;-80
2021/06/02 03:49:44;;;;;;;4.83;4.37;;;;;;;9.58;69.43;99609.63;4971880;29;20232;-82
2021/06/02 03:52:39;;;;;;;5.40;4.33;;;;;;;9.62;69.23;99607.34;4987493;28;20636;-82
2021/06/02 03:55:33;;;;;;;5.27;4.03;;;;;;;10.22;67.77;99615.88;4973795;28;20217;-80
2021/06/02 03:58:05;;;;;;;4.27;3.80;;;;;;;11.28;65.53;99613.81;4969110;28;20267;-80
2021/06/02 04:00:37;;;;;;;4.40;4.00;;;;;;;13.74;57.08;99611.16;4975220;28;20228;-83
2021/06/02 04:03:11;;;;;;;4.70;3.60;;;;;;;15.66;50.51;99619.56;4991684;28;20288;-83
2021/06/02 04:05:56;;;;;;;5.00;3.30;;;;;;;16.77;46.83;99604.41;4990746;28;20231;-82
2021/06/02 04:08:48;;;;;;;5.57;3.53;;;;;;;16.95;45.55;99605.84;4975285;28;20236;-82
2021/06/02 04:11:40;;;;;;;5.47;3.07;;;;;;;17.02;45.12;99609.16;4976996;28;20240;-82
2021/06/02 04:14:07;;;;;;;3.60;3.30;;;;;;;16.89;45.05;99613.13;4976065;28;20225;-82
2021/06/02 04:16:39;;;;;;;6.00;3.33;;;;;;;16.88;45.32;99610.69;4974902;28;20213;-80
2021/06/02 04:19:10;;;;;;;3.57;2.97;;;;;;;16.83;44.94;99605.25;4991488;28;20189;-81
2021/06/02 04:21:42;;;;;;;3.83;3.20;;;;;;;16.82;45.17;99606.31;4966114;28;20232;-83
2021/06/02 04:24:14;;;;;;;3.87;3.40;;;;;;;16.75;44.88;99608.44;4974417;28;20236;-84
2021/06/02 04:26:41;;;;;;;4.73;3.30;;;;;;;16.84;45.51;99607.69;4958587;29;20636;-83
2021/06/02 04:29:10;;;;;;;4.00;3.47;;;;;;;17.30;43.99;99613.38;4974703;28;20537;-87
2021/06/02 04:31:40;;;;;;;4.03;3.63;;;;;;;17.19;44.02;99604.38;4958910;29;20225;-87
2021/06/02 04:34:07;;;;;;;4.90;3.43;;;;;;;16.66;45.23;99606.19;4974058;28;20286;-83
2021/06/02 04:36:34;;;;;;;3.63;3.33;;;;;;;16.24;46.60;99611.50;4974558;28;20244;-86
2021/06/02 04:39:01;;;;;;;5.00;3.97;;;;;;;15.85;47.80;99618.16;4958715;28;20230;-84
2021/06/02 04:41:29;;;;;;;5.90;3.60;;;;;;;15.51;48.90;99619.38;4958395;29;20250;-86
2021/06/02 04:43:58;;;;;;;3.90;3.47;;;;;;;15.24;50.04;99628.22;4958637;28;20226;-82
2021/06/02 04:46:25;;;;;;;5.20;3.53;;;;;;;15.08;50.48;99620.97;4958143;28;20233;-86
2021/06/02 04:48:52;;;;;;;3.90;3.50;;;;;;;15.06;50.39;99630.38;4974428;28;20323;-84
2021/06/02 04:51:41;;;;;;;5.13;3.50;;;;;;;15.14;50.18;99628.06;4958323;29;20727;-85
2021/06/02 04:54:29;;;;;;;5.67;3.70;;;;;;;15.24;49.82;99635.47;4973903;28;20237;-84
2021/06/02 04:57:23;;;;;;;6.90;4.17;;;;;;;15.40;49.52;99631.91;4959193;28;20251;-85
2021/06/02 05:00:08;;;;;;;8.87;4.90;;;;;;;15.47;50.82;99629.03;4958203;29;20542;-81
2021/06/02 05:03:13;;;;;;;6.53;4.07;;;;;;;15.62;50.16;99629.25;4958963;28;20623;-79
2021/06/02 05:06:17;;;;;;;4.53;4.13;;;;;;;15.73;50.02;99633.69;4973947;28;20658;-82
2021/06/02 05:09:24;;;;;;;4.47;4.07;;;;;;;15.95;49.67;99639.06;4958796;28;20290;-83
2021/06/02 05:12:06;;;;;;;6.23;4.13;;;;;;;16.13;48.38;99642.25;4958827;28;20234;-83
2021/06/02 05:14:58;;;;;;;4.77;4.37;;;;;;;16.37;47.95;99642.75;4973763;28;20315;-83
2021/06/02 05:17:56;;;;;;;5.10;4.10;;;;;;;16.55;46.86;99633.41;4957959;29;20240;-80
2021/06/02 05:23:29;;;;;;;4.60;3.80;;;;;;;17.04;45.36;99632.16;4957690;29;20255;-81
2021/06/02 05:26:45;;;;;;;4.60;4.20;;;;;;;17.13;44.81;99633.31;4957560;29;20240;-81
2021/06/02 05:29:34;;;;;;;6.67;3.90;;;;;;;17.32;44.77;99632.84;4939853;28;20312;-83
2021/06/02 05:32:38;;;;;;;3.97;3.40;;;;;;;17.40;42.75;99640.50;4958527;28;20225;-78
2021/06/02 05:35:11;;;;;;;6.03;4.00;;;;;;;17.42;43.83;99641.03;4956575;29;20224;-80
2021/06/02 05:38:02;;;;;;;5.87;4.10;;;;;;;17.31;44.73;99640.16;4957573;29;20229;-84
2021/06/02 05:40:38;;;;;;;11.03;4.00;;;;;;;17.19;45.51;99636.84;4973347;28;20260;-85
2021/06/02 05:43:31;;;;;;;8.50;4.07;;;;;;;17.06;46.33;99642.75;4957563;29;20246;-81
2021/06/02 05:46:10;;;;;;;9.53;4.17;;;;;;;17.01;46.73;99640.00;4955596;29;20240;-84
2021/06/02 05:49:09;;;;;;;8.60;4.00;;;;;;;16.84;47.81;99632.06;4941030;29;20328;-81
2021/06/02 05:51:54;;;;;;;6.13;4.17;;;;;;;16.55;48.72;99641.53;4957329;28;20235;-80
2021/06/02 05:54:58;;;;;;;5.93;4.00;;;;;;;16.88;48.78;99643.97;4973101;28;20250;-85
2021/06/02 05:57:48;;;;;;;5.37;4.27;;;;;;;16.64;50.10;99643.53;4957098;29;20235;-82
2021/06/02 06:00:33;;;;;;;8.70;4.30;;;;;;;16.96;49.18;99648.91;4957852;28;20235;-80
2021/06/02 06:03:00;;;;;;;4.13;3.73;;;;;;;16.92;49.81;99645.09;4957967;28;20239;-83
2021/06/02 06:05:32;;;;;;;9.07;4.40;;;;;;;16.87;48.85;99639.66;4956815;29;20317;-80
2021/06/02 06:08:48;;;;;;;10.23;4.23;;;;;;;16.82;49.70;99634.19;4973115;28;20231;-81
2021/06/02 06:11:36;;;;;;;7.43;4.00;;;;;;;17.00;49.44;99641.06;4972772;28;20224;-80
2021/06/02 06:14:38;;;;;;;5.60;3.77;;;;;;;16.71;50.10;99637.88;4972421;28;20236;-83
2021/06/02 06:17:33;;;;;;;5.13;4.10;;;;;;;17.11;49.41;99648.19;4972735;28;20231;-79
2021/06/02 06:20:29;;;;;;;5.13;3.63;;;;;;;17.10;49.14;99638.44;4972645;28;20647;-84
2021/06/02 06:23:04;;;;;;;10.70;3.70;;;;;;;17.55;48.98;99644.06;4972304;28;20236;-81
2021/06/02 06:25:49;;;;;;;5.43;3.43;;;;;;;17.48;48.73;99646.22;4972513;28;20670;-82
2021/06/02 06:28:51;;;;;;;6.23;3.90;;;;;;;17.60;48.32;99632.47;4972223;28;20236;-84
2021/06/02 06:31:21;;;;;;;4.13;3.50;;;;;;;18.03;48.13;99647.50;4956826;29;20225;-83
2021/06/02 06:33:50;;;;;;;5.00;3.97;;;;;;;18.22;47.64;99645.94;4972748;28;20652;-80
2021/06/02 06:36:22;;;;;;;4.70;3.40;;;;;;;18.53;46.82;99657.63;4972158;28;20225;-86
2021/06/02 06:39:21;;;;;;;3.70;3.40;;;;;;;18.61;47.11;99654.41;4956229;28;20235;-84
2021/06/02 06:41:48;;;;;;;4.23;3.43;;;;;;;18.79;46.67;99636.75;4967054;28;20219;-85
2021/06/02 06:44:16;;;;;;;6.77;3.50;;;;;;;19.06;46.37;99641.88;4939825;28;20287;-85
2021/06/02 06:46:45;;;;;;;7.30;3.23;;;;;;;19.28;45.02;99642.34;4958957;28;20234;-85
2021/06/02 06:49:12;;;;;;;4.03;3.00;;;;;;;19.40;44.45;99618.41;4975393;28;20639;-86
2021/06/02 06:51:41;;;;;;;5.37;2.80;;;;;;;19.61;43.97;99638.19;4975373;28;20600;-85
2021/06/02 06:54:12;;;;;;;6.30;3.53;;;;;;;19.98;43.33;99645.88;4958925;28;20228;-85
2021/06/02 06:56:40;;;;;;;3.73;3.30;;;;;;;20.22;41.50;99634.03;4959219;28;20236;-82
2021/06/02 06:59:07;;;;;;;5.50;3.17;;;;;;;20.41;40.53;99636.13;4959254;28;20310;-86
2021/06/02 07:01:37;;;;;;;4.13;3.47;;;;;;;20.59;40.73;99636.25;4959262;28;20243;-85
2021/06/02 07:04:06;;;;;;;7.37;3.00;;;;;;;20.76;39.09;99641.28;4974869;28;20232;-85
2021/06/02 07:06:36;;;;;;;3.30;3.00;;;;;;;20.87;39.19;99625.66;4959109;28;20237;-84
2021/06/02 07:09:03;;;;;;;3.77;2.70;;;;;;;21.07;38.52;99628.19;4958883;28;20345;-85
2021/06/02 07:11:36;;;;;;;5.83;3.27;;;;;;;21.17;38.05;99624.56;4959274;28;20288;-79
2021/06/02 07:14:03;;;;;;;5.80;3.17;;;;;;;21.36;37.61;99617.28;4974447;28;20234;-83
2021/06/02 07:16:35;;;;;;;4.47;3.00;;;;;;;21.52;37.27;99627.69;4958864;28;20225;-83
2021/06/02 07:19:02;;;;;;;6.00;2.63;;;;;;;21.60;37.56;99623.53;4959168;28;20233;-84
2021/06/02 07:21:29;;;;;;;5.53;2.97;;;;;;;21.71;36.44;99624.19;4974930;28;20226;-86
2021/06/02 07:23:57;;;;;;;5.40;3.10;;;;;;;21.81;36.83;99624.88;4975148;28;20231;-85
2021/06/02 07:26:23;;;;;;;3.80;3.17;;;;;;;21.80;36.60;99617.78;4942419;28;20305;-83
2021/06/02 07:29:10;;;;;;;4.73;2.70;;;;;;;21.89;35.47;99629.66;4961657;28;20280;-84
2021/06/02 07:31:37;;;;;;;6.87;2.30;;;;;;;21.91;34.52;99611.09;4943135;28;20581;-84
2021/06/02 07:34:06;;;;;;;3.33;2.70;;;;;;;22.14;34.89;99612.16;4974610;28;20543;-83
2021/06/02 07:36:32;;;;;;;4.03;2.40;;;;;;;22.30;34.10;99623.66;4942984;28;20254;-82
2021/06/02 07:39:00;;;;;;;6.47;2.30;;;;;;;22.21;33.78;99612.56;4959065;28;20225;-84
2021/06/02 07:41:27;;;;;;;4.17;2.27;;;;;;;22.49;31.99;99631.81;4974560;28;20251;-84
2021/06/02 07:43:54;;;;;;;2.30;1.90;;;;;;;22.49;30.27;99618.16;4958871;28;20236;-83
2021/06/02 07:46:20;;;;;;;6.23;1.80;;;;;;;22.62;29.27;99629.13;4974440;28;20289;-84
2021/06/02 07:48:47;;;;;;;6.35;2.20;;;;;;;22.69;30.39;99632.28;4958478;28;20226;-85
2021/06/02 07:51:14;;;;;;;3.47;1.87;;;;;;;22.64;29.28;99621.44;4974844;28;20599;-85
2021/06/02 07:53:41;;;;;;;4.33;1.93;;;;;;;22.83;27.94;99615.97;4974579;28;20244;-82
2021/06/02 07:56:08;;;;;;;3.00;2.10;;;;;;;23.03;28.59;99622.97;4958337;28;20314;-84
2021/06/02 07:58:35;;;;;;;2.20;2.00;;;;;;;23.00;27.62;99626.31;4977745;28;20509;-85
2021/06/02 08:01:03;;;;;;;2.40;2.20;;;;;;;23.11;28.64;99622.28;4962281;28;20305;-84
2021/06/02 08:03:30;;;;;;;7.07;2.00;;;;;;;23.26;28.49;99632.91;4979144;28;20243;-85
2021/06/02 08:05:56;;;;;;;4.55;2.10;;;;;;;23.27;29.43;99621.69;4946269;28;20252;-85
2021/06/02 08:08:23;;;;;;;5.20;2.40;;;;;;;23.25;29.03;99634.03;4961796;28;20230;-84
2021/06/02 08:10:50;;;;;;;4.55;2.20;;;;;;;23.35;28.78;99625.63;4978424;28;20286;-81
2021/06/02 08:13:17;;;;;;;3.33;2.33;;;;;;;23.36;27.78;99616.31;4978234;28;20231;-81
2021/06/02 08:15:44;;;;;;;3.40;2.20;;;;;;;23.46;28.29;99627.09;4978087;28;20322;-85
2021/06/02 08:18:11;;;;;;;4.38;2.38;;;;;;;23.48;30.27;99640.44;4961854;28;20646;-84
2021/06/02 08:20:37;;;;;;;2.72;2.30;;;;;;;23.59;30.34;99636.41;4978938;28;20662;-82
2021/06/02 08:23:05;;;;;;;4.93;2.40;;;;;;;23.45;30.39;99630.13;4961851;28;20608;-84
2021/06/02 08:25:31;;;;;;;2.95;1.90;;;;;;;23.40;30.18;99632.94;4977624;28;20709;-82
2021/06/02 08:27:58;;;;;;;2.75;2.22;;;;;;;23.40;29.92;99644.69;4977756;28;20687;-85
2021/06/02 08:30:25;;;;;;;6.78;3.13;;;;;;;23.36;30.36;99637.38;4961062;28;20231;-84
2021/06/02 08:32:52;;;;;;;3.40;2.20;;;;;;;23.25;30.77;99651.25;4977733;28;20239;-85
2021/06/02 08:35:21;;;;;;;5.53;2.43;;;;;;;23.28;31.50;99644.38;4961260;28;20239;-82
2021/06/02 08:37:48;;;;;;;6.32;2.42;;;;;;;23.16;31.71;99644.84;4977865;28;20243;-82
2021/06/02 08:40:16;;;;;;;4.60;2.95;;;;;;;23.23;32.91;99647.19;4961206;28;20600;-81
2021/06/02 08:42:45;;;;;;;5.40;2.60;;;;;;;23.22;33.02;99654.59;4977354;28;20644;-82
2021/06/02 08:45:13;;;;;;;6.93;2.88;;;;;;;23.27;32.60;99659.97;4945299;28;20265;-81
2021/06/02 08:47:44;;;;;;;6.00;3.00;;;;;;;23.35;33.79;99647.50;4961280;28;20259;-81
2021/06/02 08:50:13;;;;;;;6.63;3.00;;;;;;;23.34;33.50;99656.00;4961174;28;20636;-81
2021/06/02 08:52:41;;;;;;;4.60;2.88;;;;;;;23.43;33.67;99646.78;4978102;28;20726;-82
2021/06/02 08:55:10;;;;;;;6.00;2.53;;;;;;;23.31;32.14;99656.63;4961021;28;20259;-81
2021/06/02 08:57:42;;;;;;;5.15;3.03;;;;;;;23.41;32.65;99654.50;4961344;28;20255;-81
2021/06/02 09:00:11;;;;;;;4.68;2.80;;;;;;;23.44;33.09;99659.38;4977202;28;20264;-81
2021/06/02 09:02:43;;;;;;;4.68;3.03;;;;;;;23.11;33.16;99664.06;4960695;28;20247;-82
2021/06/02 09:05:10;;;;;;;5.22;2.67;;;;;;;23.25;32.25;99655.91;4961227;28;20596;-82
2021/06/02 09:07:39;;;;;;;5.63;2.60;;;;;;;23.32;32.27;99655.50;4959928;28;20254;-81
2021/06/02 09:10:08;;;;;;;3.38;2.67;;;;;;;23.48;32.79;99673.25;4959828;28;20255;-81
2021/06/02 09:12:37;;;;;;;4.78;2.90;;;;;;;23.43;33.25;99663.19;4960116;28;20310;-81
2021/06/02 09:15:15;;;;;;;3.85;2.60;;;;;;;23.43;32.71;99665.94;4960381;28;20227;-81
2021/06/02 09:18:04;;;;;;;5.67;2.77;;;;;;;23.35;33.07;99663.91;4960426;28;20281;-82
2021/06/02 09:20:34;;;;;;;4.38;2.53;;;;;;;23.44;32.05;99664.00;4976154;28;20242;-81
2021/06/02 09:23:38;;;;;;;4.80;2.80;;;;;;;23.61;32.21;99661.50;4976505;28;20316;-81
2021/06/02 09:26:12;;;;;;;5.47;2.67;;;;;;;23.66;31.07;99675.06;4943854;28;20323;-81
2021/06/02 09:28:59;;;;;;;3.42;2.47;;;;;;;23.60;31.18;99668.91;4961017;28;20318;-82
2021/06/02 09:31:34;;;;;;;3.35;2.63;;;;;;;23.65;31.80;99666.09;4977067;28;20536;-82
2021/06/02 09:34:03;;;;;;;4.68;2.63;;;;;;;23.77;31.04;99683.88;4960609;28;20322;-82
2021/06/02 09:36:33;;;;;;;5.15;2.95;;;;;;;23.83;30.40;99680.75;4978098;28;20256;-81
2021/06/02 09:39:04;;;;;;;6.45;2.90;;;;;;;23.89;31.04;99676.00;4976239;28;20676;-81
2021/06/02 09:41:38;;;;;;;2.70;2.50;;;;;;;23.95;30.00;99663.81;4973821;28;20220;-81
2021/06/02 09:44:21;;;;;;;5.03;2.33;;;;;;;23.94;29.93;99671.19;4958209;28;20228;-80
2021/06/02 09:47:04;;;;;;;4.32;2.60;;;;;;;23.89;30.72;99673.25;4944320;28;20231;-80
2021/06/02 09:49:52;;;;;;;4.35;2.22;;;;;;;24.02;29.87;99658.72;4975936;28;20570;-80
2021/06/02 09:52:36;;;;;;;2.83;2.17;;;;;;;23.83;29.12;99658.06;4959739;28;20567;-80
2021/06/02 09:55:22;;;;;;;4.78;2.20;;;;;;;23.97;28.93;99647.91;4975300;28;20712;-81
2021/06/02 09:58:01;;;;;;;2.63;2.20;;;;;;;24.11;29.21;99654.16;4956436;28;20301;-81
2021/06/02 10:00:42;;;;;;;4.30;2.03;;;;;;;24.10;28.64;99652.53;4971074;28;20232;-81
2021/06/02 10:03:09;;;;;;;3.47;2.40;;;;;;;24.14;27.85;99662.56;4972432;28;20283;-81
2021/06/02 10:05:43;;;;;;;2.65;2.17;;;;;;;24.25;27.94;99662.34;4972041;28;20239;-80
2021/06/02 10:08:11;;;;;;;5.38;1.98;;;;;;;24.17;27.00;99654.88;4972066;28;20247;-82
2021/06/02 10:10:39;;;;;;;2.92;2.20;;;;;;;24.14;25.85;99648.06;4973143;28;20247;-81
2021/06/02 10:13:12;;;;;;;4.65;2.13;;;;;;;24.27;27.01;99651.88;4972861;28;20247;-81
2021/06/02 10:15:41;;;;;;;4.20;2.10;;;;;;;24.40;26.45;99662.00;4956906;28;20240;-81
2021/06/02 10:18:25;;;;;;;2.80;2.20;;;;;;;24.60;26.63;99658.75;4956312;28;20673;-80
2021/06/02 10:21:07;;;;;;;2.25;2.03;;;;;;;24.60;26.16;99668.91;4975578;28;20243;-81
2021/06/02 10:23:40;;;;;;;2.15;2.03;;;;;;;24.55;25.75;99676.13;4975266;28;20247;-80
2021/06/02 10:26:08;;;;;;;3.78;2.42;;;;;;;24.48;25.63;99664.81;4990489;28;20251;-80
2021/06/02 10:28:35;;;;;;;4.25;2.22;;;;;;;24.61;26.47;99663.13;4943509;28;20228;-79
2021/06/02 10:31:05;;;;;;;2.90;2.20;;;;;;;24.59;26.61;99651.66;4975423;28;20580;-80
2021/06/02 10:33:33;;;;;;;2.38;2.10;;;;;;;24.70;25.71;99660.44;4958479;28;20282;-80
2021/06/02 10:36:03;;;;;;;2.85;2.00;;;;;;;24.94;25.93;99663.69;4974538;28;20233;-80
2021/06/02 10:38:41;;;;;;;5.18;2.40;;;;;;;25.04;25.03;99670.84;4991527;28;20232;-81
2021/06/02 10:41:14;;;;;;;4.13;2.03;;;;;;;25.04;24.77;99657.16;4976305;28;20228;-81
2021/06/02 10:43:43;;;;;;;5.22;2.50;;;;;;;25.19;24.42;99674.00;4975277;28;20542;-80
2021/06/02 10:46:14;;;;;;;3.88;2.38;;;;;;;25.03;24.48;99671.97;4958871;28;20315;-80
2021/06/02 10:48:45;;;;;;;3.13;2.33;;;;;;;25.13;24.48;99666.22;4959202;28;20228;-81
2021/06/02 10:51:25;;;;;;;2.40;2.20;;;;;;;25.13;23.71;99677.19;4943285;28;20238;-81
2021/06/02 10:54:21;;;;;;;3.78;2.03;;;;;;;25.21;24.56;99676.41;4959217;28;20226;-80
2021/06/02 10:56:57;;;;;;;3.28;2.88;;;;;;;25.38;24.64;99674.56;4957207;28;20649;-80
2021/06/02 10:59:43;;;;;;;4.88;2.30;;;;;;;25.49;24.80;99675.09;4976335;28;20323;-80
2021/06/02 11:02:15;;;;;;;2.95;2.00;;;;;;;25.59;24.53;99663.06;4974832;28;20235;-80
2021/06/02 11:04:42;;;;;;;2.90;2.05;;;;;;;25.67;23.93;99671.31;4942891;28;20228;-81
2021/06/02 11:07:17;;;;;;;3.38;2.20;;;;;;;25.83;23.87;99669.75;4959094;28;20632;-80
2021/06/02 11:09:57;;;;;;;2.10;2.00;;;;;;;25.88;23.50;99674.28;4958958;28;20235;-80
2021/06/02 11:12:50;;;;;;;3.42;2.15;;;;;;;25.89;24.14;99667.69;4974720;28;20636;-80
2021/06/02 11:15:33;;;;;;;6.22;2.20;;;;;;;25.92;24.90;99667.03;4976182;28;20666;-81
2021/06/02 11:18:18;;;;;;;2.92;1.95;;;;;;;25.85;24.41;99678.47;4974883;28;20232;-80
2021/06/02 11:20:50;;;;;;;2.70;1.90;;;;;;;25.90;24.17;99668.50;4958617;28;20236;-81
2021/06/02 11:23:19;;;;;;;3.83;1.95;;;;;;;26.05;24.31;99668.81;4974453;28;20225;-81
2021/06/02 11:25:47;;;;;;;4.22;2.30;;;;;;;25.96;23.73;99672.69;4974741;28;20633;-81
2021/06/02 11:28:39;;;;;;;2.97;2.05;;;;;;;26.14;24.23;99664.16;4958646;28;20231;-81
2021/06/02 11:31:23;;;;;;;3.40;2.42;;;;;;;26.22;24.26;99657.88;4954134;28;20611;-81
2021/06/02 11:33:50;;;;;;;4.70;3.00;;;;;;;26.21;24.16;99659.03;4977662;28;20237;-81
2021/06/02 11:36:17;;;;;;;3.08;2.13;;;;;;;26.21;23.01;99674.69;4976872;28;20243;-80
2021/06/02 11:38:45;;;;;;;2.22;2.03;;;;;;;26.30;23.00;99667.28;4976492;28;20231;-80
2021/06/02 11:41:13;;;;;;;2.50;2.30;;;;;;;26.31;22.62;99657.09;4978202;28;20261;-80
2021/06/02 11:43:58;;;;;;;5.10;1.85;;;;;;;26.53;23.47;99674.22;4978445;28;20224;-81
2021/06/02 11:46:49;;;;;;;3.47;1.90;;;;;;;26.57;22.85;99671.63;4979696;28;20230;-80
2021/06/02 11:49:27;;;;;;;2.35;1.90;;;;;;;26.70;22.33;99667.91;4948395;28;20319;-80
2021/06/02 11:51:55;;;;;;;2.70;1.90;;;;;;;26.68;22.72;99662.75;4959476;28;20618;-81
2021/06/02 11:54:24;;;;;;;3.40;2.20;;;;;;;26.76;23.15;99671.28;4977817;28;20281;-80
2021/06/02 11:56:51;;;;;;;3.50;1.90;;;;;;;26.66;22.46;99659.50;4961965;28;20544;-81
2021/06/02 11:59:18;;;;;;;4.00;2.17;;;;;;;26.44;22.62;99658.88;4977901;28;20638;-80
2021/06/02 12:01:46;;;;;;;3.17;1.95;;;;;;;26.52;22.72;99658.88;4977802;28;20246;-80
2021/06/02 12:04:23;;;;;;;6.32;2.17;;;;;;;26.56;22.92;99659.81;4976688;28;20307;-80
2021/06/02 12:06:49;;;;;;;2.30;1.90;;;;;;;26.59;22.92;99666.63;4993389;28;20236;-80
2021/06/02 12:09:16;;;;;;;4.15;2.10;;;;;;;26.67;22.54;99661.13;4975710;28;20227;-80
2021/06/02 12:11:43;;;;;;;3.50;2.13;;;;;;;26.74;23.27;99657.88;4977682;28;20235;-79
2021/06/02 12:14:20;;;;;;;5.03;2.10;;;;;;;26.94;24.02;99657.22;4978501;28;20522;-79
2021/06/02 12:16:47;;;;;;;6.38;3.42;;;;;;;27.10;23.18;99661.06;4977662;28;20231;-80
2021/06/02 12:19:17;;;;;;;2.13;1.92;;;;;;;27.10;22.40;99650.06;4977689;28;20627;-80
2021/06/02 12:21:45;;;;;;;3.55;2.10;;;;;;;27.26;22.83;99666.00;4977437;28;20523;-81